createdAt,value
2022-12-31T00:02:42.940Z,17.98
2022-12-31T00:05:45.272Z,17.17
2022-12-31T00:08:48.555Z,19.45
2022-12-31T00:11:50.652Z,15.95
2022-12-31T00:14:52.807Z,16.47
2022-12-31T00:17:55.002Z,18.65
2022-12-31T00:20:57.121Z,17.77
2022-12-31T00:23:59.508Z,17.67
2022-12-31T00:27:01.706Z,16.15
2022-12-31T00:30:04.958Z,15.45
2022-12-31T00:33:07.257Z,16.63
2022-12-31T00:36:39.868Z,15.63
2022-12-31T00:39:42.130Z,17.00
2022-12-31T00:42:44.224Z,17.65
2022-12-31T00:45:46.394Z,17.33
2022-12-31T00:48:50.909Z,17.75
2022-12-31T00:51:53.054Z,17.33
2022-12-31T00:54:55.220Z,18.13
2022-12-31T00:57:57.393Z,16.77
2022-12-31T01:00:59.649Z,17.45
2022-12-31T01:04:14.237Z,17.30
2022-12-31T01:07:16.386Z,18.03
2022-12-31T01:10:38.504Z,14.77
2022-12-31T01:13:40.624Z,17.88
2022-12-31T01:16:50.846Z,17.47
2022-12-31T01:19:53.094Z,15.90
2022-12-31T01:22:55.778Z,17.38
2022-12-31T01:26:03.900Z,15.98
2022-12-31T01:29:07.849Z,18.55
2022-12-31T01:32:09.957Z,17.25
2022-12-31T01:35:12.062Z,20.33
2022-12-31T01:38:14.231Z,18.53
2022-12-31T01:41:21.256Z,15.95
2022-12-31T01:44:23.326Z,17.42
2022-12-31T01:47:34.682Z,16.80
2022-12-31T01:50:38.914Z,18.75
2022-12-31T01:53:41.357Z,17.27
2022-12-31T01:56:44.709Z,15.60
2022-12-31T01:59:46.921Z,15.57
2022-12-31T02:02:49.181Z,16.75
2022-12-31T02:06:22.022Z,16.95
2022-12-31T02:09:24.259Z,18.33
2022-12-31T02:12:26.446Z,18.30
2022-12-31T02:15:55.015Z,17.88
2022-12-31T02:19:06.522Z,17.83
2022-12-31T02:22:27.006Z,20.38
2022-12-31T02:26:10.491Z,18.98
2022-12-31T02:29:47.882Z,18.30
2022-12-31T02:33:01.745Z,19.80
2022-12-31T02:36:13.457Z,17.55
2022-12-31T02:39:15.878Z,20.08
2022-12-31T02:42:18.206Z,18.23
2022-12-31T02:45:25.716Z,20.88
2022-12-31T02:48:51.507Z,20.20
2022-12-31T02:52:01.104Z,20.20
2022-12-31T02:55:06.803Z,19.67
2022-12-31T02:58:15.505Z,19.70
2022-12-31T03:01:41.832Z,19.35
2022-12-31T03:04:56.150Z,20.35
2022-12-31T03:07:58.362Z,21.08
2022-12-31T03:11:20.476Z,20.75
2022-12-31T03:14:22.591Z,20.23
2022-12-31T03:17:25.289Z,20.67
2022-12-31T03:20:52.144Z,19.40
2022-12-31T03:24:13.000Z,20.60
2022-12-31T03:27:15.212Z,21.10
2022-12-31T03:30:18.510Z,21.48
2022-12-31T03:33:21.550Z,19.35
2022-12-31T03:36:23.690Z,18.00
2022-12-31T03:39:25.874Z,22.80
2022-12-31T03:42:28.059Z,21.00
2022-12-31T03:45:30.777Z,19.50
2022-12-31T03:48:33.034Z,21.35
2022-12-31T03:51:35.266Z,19.92
2022-12-31T03:54:37.366Z,19.77
2022-12-31T03:57:39.876Z,21.13
2022-12-31T04:00:42.056Z,18.70
2022-12-31T04:03:44.266Z,19.23
2022-12-31T04:06:46.400Z,20.10
2022-12-31T04:09:48.592Z,16.63
2022-12-31T04:12:50.894Z,20.85
2022-12-31T04:15:53.019Z,19.47
2022-12-31T04:18:55.195Z,18.08
2022-12-31T04:21:57.643Z,20.30
2022-12-31T04:24:59.848Z,19.43
2022-12-31T04:28:01.982Z,20.45
2022-12-31T04:31:04.408Z,21.88
2022-12-31T04:34:06.576Z,19.77
2022-12-31T04:37:08.789Z,18.33
2022-12-31T04:40:11.185Z,18.63
2022-12-31T04:43:13.421Z,18.13
2022-12-31T04:46:17.294Z,16.57
2022-12-31T04:49:19.668Z,20.05
2022-12-31T04:52:23.074Z,18.50
2022-12-31T04:55:25.318Z,18.40
2022-12-31T04:58:27.636Z,18.45
2022-12-31T05:01:29.836Z,18.55
2022-12-31T05:04:32.038Z,19.88
2022-12-31T05:07:34.204Z,20.35
2022-12-31T05:10:36.799Z,19.77
2022-12-31T05:13:39.395Z,18.48
2022-12-31T05:16:41.537Z,22.60
2022-12-31T05:19:43.760Z,18.88
2022-12-31T05:22:45.921Z,19.40
2022-12-31T05:25:48.705Z,20.87
2022-12-31T05:28:50.819Z,19.27
2022-12-31T05:31:52.962Z,20.38
2022-12-31T05:34:55.140Z,19.52
2022-12-31T05:37:57.357Z,19.13
2022-12-31T05:41:03.037Z,18.80
2022-12-31T05:44:05.186Z,19.23
2022-12-31T05:47:07.332Z,19.37
2022-12-31T05:50:10.937Z,21.23
2022-12-31T05:53:13.058Z,20.25
2022-12-31T05:56:15.228Z,19.23
2022-12-31T05:59:17.376Z,18.42
2022-12-31T06:02:20.741Z,19.35
2022-12-31T06:05:26.292Z,19.58
2022-12-31T06:08:28.964Z,17.20
2022-12-31T06:11:31.199Z,18.55
2022-12-31T06:14:33.507Z,20.25
2022-12-31T06:17:35.759Z,19.87
2022-12-31T06:20:38.233Z,18.50
2022-12-31T06:23:40.871Z,19.50
2022-12-31T06:26:43.004Z,20.97
2022-12-31T06:29:45.765Z,19.20
2022-12-31T06:32:47.898Z,22.95
2022-12-31T06:35:55.703Z,21.98
2022-12-31T06:38:57.883Z,20.88
2022-12-31T06:42:00.008Z,21.13
2022-12-31T06:45:02.185Z,22.23
2022-12-31T06:48:04.548Z,20.80
2022-12-31T06:51:16.583Z,19.92
2022-12-31T06:54:19.422Z,21.83
2022-12-31T06:57:23.522Z,23.40
2022-12-31T07:00:25.949Z,21.15
2022-12-31T07:03:48.784Z,21.95
2022-12-31T07:07:07.527Z,26.10
2022-12-31T07:10:30.033Z,24.10
2022-12-31T07:13:45.272Z,22.10
2022-12-31T07:17:29.466Z,22.38
2022-12-31T07:20:31.974Z,22.83
2022-12-31T07:23:34.348Z,22.85
2022-12-31T07:27:10.962Z,24.20
2022-12-31T07:30:37.845Z,23.40
2022-12-31T07:33:59.047Z,23.77
2022-12-31T07:37:31.789Z,24.50
2022-12-31T07:40:38.642Z,24.15
2022-12-31T07:43:49.781Z,26.08
2022-12-31T07:46:57.395Z,22.77
2022-12-31T07:49:59.987Z,25.60
2022-12-31T07:53:02.439Z,23.40
2022-12-31T07:56:06.797Z,25.83
2022-12-31T07:59:27.362Z,26.63
2022-12-31T08:02:55.032Z,24.67
2022-12-31T08:06:09.267Z,25.42
2022-12-31T08:09:29.672Z,25.70
2022-12-31T08:12:34.951Z,24.25
2022-12-31T08:15:38.466Z,25.40
2022-12-31T08:18:41.341Z,25.92
2022-12-31T08:21:59.817Z,28.83
2022-12-31T08:25:26.214Z,24.10
2022-12-31T08:28:50.421Z,26.63
2022-12-31T08:31:59.472Z,27.27
2022-12-31T08:35:14.115Z,25.80
2022-12-31T08:38:32.215Z,27.92
2022-12-31T08:41:43.475Z,22.88
2022-12-31T08:44:45.609Z,24.73
2022-12-31T08:48:06.226Z,26.98
2022-12-31T08:51:28.829Z,24.83
2022-12-31T08:54:31.285Z,26.95
2022-12-31T08:57:59.058Z,25.53
2022-12-31T09:01:01.676Z,27.38
2022-12-31T09:04:26.336Z,24.90
2022-12-31T09:07:36.263Z,30.23
2022-12-31T09:10:53.462Z,26.90
2022-12-31T09:14:17.284Z,27.45
2022-12-31T09:17:25.128Z,24.75
2022-12-31T09:20:42.672Z,25.85
2022-12-31T09:23:47.145Z,27.45
2022-12-31T09:27:07.705Z,26.20
2022-12-31T09:30:14.250Z,25.93
2022-12-31T09:34:03.665Z,26.98
2022-12-31T09:37:44.340Z,26.20
2022-12-31T09:41:01.434Z,27.73
2022-12-31T09:44:50.486Z,24.92
2022-12-31T09:48:17.255Z,26.45
2022-12-31T09:51:44.355Z,24.10
2022-12-31T09:55:11.987Z,25.45
2022-12-31T09:58:33.018Z,25.65
2022-12-31T10:01:43.741Z,26.23
2022-12-31T10:05:19.327Z,26.27
2022-12-31T10:08:56.699Z,25.45
2022-12-31T10:12:37.006Z,23.17
2022-12-31T10:15:54.394Z,24.87
2022-12-31T10:19:19.682Z,25.80
2022-12-31T10:22:36.689Z,26.63
2022-12-31T10:25:59.043Z,24.75
2022-12-31T10:29:19.982Z,25.85
2022-12-31T10:32:45.767Z,26.10
2022-12-31T10:36:00.285Z,25.08
2022-12-31T10:39:39.264Z,26.40
2022-12-31T10:42:41.334Z,26.70
2022-12-31T10:45:58.371Z,24.58
2022-12-31T10:49:53.410Z,25.53
2022-12-31T10:53:01.256Z,25.67
2022-12-31T10:56:15.693Z,25.27
2022-12-31T10:59:24.016Z,24.45
2022-12-31T11:03:01.410Z,24.05
2022-12-31T11:06:40.883Z,26.17
2022-12-31T11:10:20.776Z,23.52
2022-12-31T11:13:22.870Z,24.97
2022-12-31T11:16:34.011Z,24.63
2022-12-31T11:19:39.084Z,23.27
2022-12-31T11:22:47.313Z,25.03
2022-12-31T11:26:02.123Z,24.42
2022-12-31T11:29:08.744Z,24.92
2022-12-31T11:32:28.314Z,26.10
2022-12-31T11:35:33.426Z,22.80
2022-12-31T11:38:45.675Z,22.00
2022-12-31T11:41:57.710Z,26.42
2022-12-31T11:45:04.471Z,24.97
2022-12-31T11:49:01.125Z,24.00
2022-12-31T11:52:37.226Z,21.58
2022-12-31T11:56:00.274Z,24.70
2022-12-31T11:59:07.763Z,24.60
2022-12-31T12:02:24.021Z,26.15
2022-12-31T12:05:27.351Z,23.23
2022-12-31T12:08:31.486Z,23.88
2022-12-31T12:11:39.064Z,22.63
2022-12-31T12:14:44.339Z,23.45
2022-12-31T12:17:50.420Z,22.47
2022-12-31T12:20:53.046Z,22.88
2022-12-31T12:24:38.358Z,23.30
2022-12-31T12:27:40.576Z,23.37
2022-12-31T12:30:44.096Z,24.65
2022-12-31T12:33:51.051Z,21.15
2022-12-31T12:36:53.393Z,23.85
2022-12-31T12:40:02.197Z,21.35
2022-12-31T12:43:04.506Z,22.35
2022-12-31T12:46:18.964Z,24.90
2022-12-31T12:49:26.922Z,22.83
2022-12-31T12:52:49.522Z,23.88
2022-12-31T12:56:04.446Z,23.13
2022-12-31T12:59:33.354Z,23.13
2022-12-31T13:02:57.364Z,22.95
2022-12-31T13:06:09.136Z,20.85
2022-12-31T13:09:25.069Z,24.05
2022-12-31T13:12:37.870Z,24.38
2022-12-31T13:16:10.142Z,25.25
2022-12-31T13:19:21.888Z,23.98
2022-12-31T13:22:34.938Z,23.83
2022-12-31T13:25:47.117Z,23.77
2022-12-31T13:28:50.881Z,22.23
2022-12-31T13:31:54.467Z,23.67
2022-12-31T13:34:58.896Z,23.48
2022-12-31T13:38:10.945Z,24.13
2022-12-31T13:41:23.272Z,23.02
2022-12-31T13:44:35.796Z,21.67
2022-12-31T13:47:44.190Z,20.75
2022-12-31T13:51:01.690Z,23.58
2022-12-31T13:54:07.254Z,23.73
2022-12-31T13:57:18.545Z,22.45
2022-12-31T14:00:24.175Z,21.77
2022-12-31T14:03:56.216Z,21.23
2022-12-31T14:07:07.481Z,19.38
2022-12-31T14:10:14.365Z,21.60
2022-12-31T14:13:34.775Z,22.17
2022-12-31T14:16:59.257Z,22.08
2022-12-31T14:20:13.462Z,23.63
2022-12-31T14:23:40.409Z,22.25
2022-12-31T14:26:55.506Z,20.10
2022-12-31T14:30:20.950Z,20.65
2022-12-31T14:33:42.021Z,22.17
2022-12-31T14:36:59.585Z,23.17
2022-12-31T14:40:19.382Z,20.10
2022-12-31T14:43:40.232Z,21.17
2022-12-31T14:47:23.827Z,23.27
2022-12-31T14:50:27.494Z,18.17
2022-12-31T14:53:29.958Z,22.05
2022-12-31T14:56:42.254Z,21.65
2022-12-31T15:00:22.940Z,19.17
2022-12-31T15:03:31.092Z,21.17
2022-12-31T15:06:48.182Z,19.35
2022-12-31T15:10:15.018Z,21.67
2022-12-31T15:13:40.136Z,20.70
2022-12-31T15:17:04.458Z,19.80
2022-12-31T15:20:26.820Z,21.27
2022-12-31T15:23:36.086Z,20.50
2022-12-31T15:26:47.906Z,20.45
2022-12-31T15:29:50.174Z,20.23
2022-12-31T15:32:52.434Z,18.63
2022-12-31T15:35:55.887Z,18.80
2022-12-31T15:39:09.857Z,21.27
2022-12-31T15:42:39.921Z,18.50
2022-12-31T15:45:44.117Z,21.27
2022-12-31T15:48:55.413Z,22.90
2022-12-31T15:52:02.473Z,20.10
2022-12-31T15:55:05.692Z,19.45
2022-12-31T15:58:12.062Z,19.33
2022-12-31T16:01:23.244Z,22.00
2022-12-31T16:04:39.356Z,19.80
2022-12-31T16:07:41.628Z,19.95
2022-12-31T16:10:44.046Z,21.75
2022-12-31T16:13:50.241Z,20.27
2022-12-31T16:16:59.517Z,20.05
2022-12-31T16:20:20.596Z,18.42
2022-12-31T16:23:25.179Z,19.60
2022-12-31T16:26:39.598Z,19.20
2022-12-31T16:29:52.215Z,22.13
2022-12-31T16:33:04.065Z,22.30
2022-12-31T16:36:06.600Z,21.83
2022-12-31T16:39:32.667Z,21.00
2022-12-31T16:42:44.362Z,19.92
2022-12-31T16:45:50.445Z,21.23
2022-12-31T16:48:58.778Z,20.45
2022-12-31T16:52:03.833Z,21.90
2022-12-31T16:55:08.861Z,21.17
2022-12-31T16:58:21.366Z,22.55
2022-12-31T17:01:25.787Z,20.35
2022-12-31T17:04:28.103Z,20.42
2022-12-31T17:07:30.178Z,20.30
2022-12-31T17:10:36.359Z,22.52
2022-12-31T17:13:38.547Z,21.73
2022-12-31T17:17:03.480Z,20.73
2022-12-31T17:20:09.107Z,22.73
2022-12-31T17:23:21.446Z,21.02
2022-12-31T17:26:31.856Z,21.75
2022-12-31T17:29:34.364Z,23.00
2022-12-31T17:32:37.097Z,21.13
2022-12-31T17:35:43.942Z,21.95
2022-12-31T17:38:46.151Z,19.90
2022-12-31T17:41:50.400Z,23.23
2022-12-31T17:44:56.811Z,23.98
2022-12-31T17:47:59.849Z,22.70
2022-12-31T17:51:02.041Z,23.70
2022-12-31T17:54:13.304Z,22.65
2022-12-31T17:57:22.896Z,24.27
2022-12-31T18:00:26.664Z,25.10
2022-12-31T18:03:28.972Z,25.75
2022-12-31T18:06:31.130Z,23.95
2022-12-31T18:09:33.299Z,22.40
2022-12-31T18:12:36.156Z,24.77
2022-12-31T18:15:38.331Z,23.25
2022-12-31T18:18:41.884Z,21.87
2022-12-31T18:21:44.830Z,24.20
2022-12-31T18:24:48.600Z,23.50
2022-12-31T18:27:51.845Z,24.77
2022-12-31T18:30:54.121Z,23.08
2022-12-31T18:33:57.869Z,23.92
2022-12-31T18:37:00.130Z,25.17
2022-12-31T18:40:02.293Z,24.13
2022-12-31T18:43:05.258Z,24.63
2022-12-31T18:46:12.194Z,25.75
2022-12-31T18:49:14.400Z,24.20
2022-12-31T18:52:22.154Z,25.13
2022-12-31T18:55:33.963Z,24.75
2022-12-31T18:58:36.199Z,25.80
2022-12-31T19:01:39.623Z,26.33
2022-12-31T19:04:41.942Z,25.00
2022-12-31T19:07:44.044Z,24.13
2022-12-31T19:10:46.788Z,25.90
2022-12-31T19:13:49.837Z,27.45
2022-12-31T19:16:53.431Z,27.27
2022-12-31T19:19:55.656Z,26.67
2022-12-31T19:22:57.929Z,25.20
2022-12-31T19:26:00.187Z,25.92
2022-12-31T19:29:02.323Z,26.33
2022-12-31T19:32:04.852Z,24.15
2022-12-31T19:35:07.294Z,27.33
2022-12-31T19:38:17.023Z,23.73
2022-12-31T19:41:20.196Z,25.20
2022-12-31T19:44:22.308Z,28.52
2022-12-31T19:47:24.422Z,27.30
2022-12-31T19:50:27.600Z,26.10
2022-12-31T19:53:29.783Z,27.50
2022-12-31T19:56:32.067Z,27.20
2022-12-31T19:59:34.233Z,28.38
2022-12-31T20:02:36.517Z,28.48
2022-12-31T20:05:38.763Z,25.55
2022-12-31T20:08:43.332Z,29.67
2022-12-31T20:11:48.395Z,27.50
2022-12-31T20:14:50.567Z,29.17
2022-12-31T20:17:52.685Z,29.75
2022-12-31T20:20:56.074Z,28.23
2022-12-31T20:23:58.495Z,27.50
2022-12-31T20:27:00.612Z,29.20
2022-12-31T20:30:02.956Z,28.92
2022-12-31T20:33:05.135Z,27.27
2022-12-31T20:36:10.010Z,29.08
2022-12-31T20:39:12.133Z,31.20
2022-12-31T20:42:14.315Z,31.10
2022-12-31T20:45:16.547Z,27.63
2022-12-31T20:48:18.716Z,28.85
2022-12-31T20:51:21.740Z,30.60
2022-12-31T20:54:23.924Z,27.27
2022-12-31T20:57:30.183Z,30.45
2022-12-31T21:00:35.640Z,27.90
2022-12-31T21:07:02.916Z,29.65
2022-12-31T21:10:05.584Z,29.77
2022-12-31T21:13:07.726Z,30.33
2022-12-31T21:16:09.935Z,31.05
2022-12-31T21:19:12.379Z,29.67
2022-12-31T21:22:14.556Z,28.27
2022-12-31T21:25:16.719Z,29.83
2022-12-31T21:28:18.935Z,31.35
2022-12-31T21:31:21.309Z,30.27
2022-12-31T21:34:23.472Z,30.90
2022-12-31T21:37:26.556Z,29.58
2022-12-31T21:40:49.022Z,32.40
2022-12-31T21:43:51.198Z,36.60
2022-12-31T21:47:35.004Z,35.42
2022-12-31T21:50:38.556Z,34.30
2022-12-31T21:53:40.775Z,34.07
2022-12-31T21:56:42.976Z,35.25
2022-12-31T22:00:39.531Z,34.65
2022-12-31T22:03:27.831Z,37.47
2022-12-31T22:06:31.363Z,37.22
2022-12-31T22:09:33.835Z,37.67
2022-12-31T22:12:36.083Z,40.00
2022-12-31T22:15:38.298Z,36.67
2022-12-31T22:18:42.874Z,40.10
2022-12-31T22:21:45.083Z,36.88
2022-12-31T22:24:47.191Z,34.93
2022-12-31T22:28:11.490Z,38.65
2022-12-31T22:31:30.444Z,36.88
2022-12-31T22:34:32.685Z,36.60
2022-12-31T22:37:56.343Z,39.55
2022-12-31T22:41:10.790Z,37.85
2022-12-31T22:44:19.678Z,37.78
2022-12-31T22:47:21.818Z,39.20
2022-12-31T22:50:24.035Z,37.47
2022-12-31T22:53:26.210Z,38.20
2022-12-31T22:56:28.429Z,39.17
2022-12-31T22:59:30.554Z,37.92
2022-12-31T23:02:35.954Z,42.03
2022-12-31T23:05:42.772Z,40.97
2022-12-31T23:09:04.913Z,38.22
2022-12-31T23:12:08.456Z,39.10
2022-12-31T23:15:29.316Z,38.97
2022-12-31T23:18:49.968Z,38.83
2022-12-31T23:22:11.096Z,42.28
2022-12-31T23:25:13.669Z,42.47
2022-12-31T23:28:21.618Z,53.53
2022-12-31T23:31:28.573Z,42.15
2022-12-31T23:34:31.355Z,44.60
2022-12-31T23:37:33.638Z,42.72
2022-12-31T23:40:35.759Z,46.90
2022-12-31T23:43:37.967Z,45.00
2022-12-31T23:46:40.694Z,44.13
2022-12-31T23:49:42.973Z,48.23
2022-12-31T23:52:45.131Z,44.88
2022-12-31T23:55:47.314Z,45.55
2022-12-31T23:58:53.796Z,49.70
